sensor_id;sensor_type;location;lat;lon;timestamp;P1;durP1;ratioP1;P2;durP2;ratioP2
53674;SDS011;39574;50.534;8.500;2023-05-08T00:01:53;3.4;;;0.9;;
53674;SDS011;39574;50.534;8.500;2023-05-08T00:06:52;3.3;;;0.9;;
53674;SDS011;39574;50.534;8.500;2023-05-08T00:11:51;3.5;;;1.1;;
53674;SDS011;39574;50.534;8.500;2023-05-08T00:16:51;3.7;;;1.3;;
53674;SDS011;39574;50.534;8.500;2023-05-08T00:21:50;3.9;;;1.6;;
53674;SDS011;39574;50.534;8.500;2023-05-08T00:26:49;3.4;;;1.5;;
53674;SDS011;39574;50.534;8.500;2023-05-08T00:31:48;3.1;;;1.2;;
53674;SDS011;39574;50.534;8.500;2023-05-08T00:36:47;2.7;;;0.9;;
53674;SDS011;39574;50.534;8.500;2023-05-08T00:41:46;2.8;;;0.9;;
53674;SDS011;39574;50.534;8.500;2023-05-08T00:46:46;4.2;;;1.4;;
53674;SDS011;39574;50.534;8.500;2023-05-08T00:51:45;3.7;;;1.3;;
53674;SDS011;39574;50.534;8.500;2023-05-08T00:56:44;3.3;;;1.2;;
53674;SDS011;39574;50.534;8.500;2023-05-08T01:01:43;2.8;;;1.0;;
53674;SDS011;39574;50.534;8.500;2023-05-08T01:06:42;2.4;;;0.8;;
53674;SDS011;39574;50.534;8.500;2023-05-08T01:11:43;2.4;;;0.8;;
53674;SDS011;39574;50.534;8.500;2023-05-08T01:16:43;3.7;;;1.0;;
53674;SDS011;39574;50.534;8.500;2023-05-08T01:21:41;3.4;;;1.0;;
53674;SDS011;39574;50.534;8.500;2023-05-08T01:27:04;3.0;;;0.9;;
53674;SDS011;39574;50.534;8.500;2023-05-08T01:31:42;3.5;;;1.1;;
53674;SDS011;39574;50.534;8.500;2023-05-08T01:36:38;3.2;;;1.1;;
53674;SDS011;39574;50.534;8.500;2023-05-08T01:41:36;3.1;;;1.2;;
53674;SDS011;39574;50.534;8.500;2023-05-08T01:46:36;3.2;;;1.0;;
53674;SDS011;39574;50.534;8.500;2023-05-08T01:51:36;3.1;;;0.8;;
53674;SDS011;39574;50.534;8.500;2023-05-08T01:56:34;3.4;;;1.1;;
53674;SDS011;39574;50.534;8.500;2023-05-08T02:01:33;3.0;;;1.0;;
53674;SDS011;39574;50.534;8.500;2023-05-08T02:06:32;3.0;;;1.1;;
53674;SDS011;39574;50.534;8.500;2023-05-08T02:11:31;3.5;;;1.2;;
53674;SDS011;39574;50.534;8.500;2023-05-08T02:16:34;3.3;;;1.2;;
53674;SDS011;39574;50.534;8.500;2023-05-08T02:21:30;3.0;;;1.0;;
53674;SDS011;39574;50.534;8.500;2023-05-08T02:26:29;3.0;;;1.1;;
53674;SDS011;39574;50.534;8.500;2023-05-08T02:31:28;2.9;;;1.2;;
53674;SDS011;39574;50.534;8.500;2023-05-08T02:36:27;2.7;;;1.0;;
53674;SDS011;39574;50.534;8.500;2023-05-08T02:41:27;3.1;;;1.2;;
53674;SDS011;39574;50.534;8.500;2023-05-08T02:46:26;3.7;;;1.4;;
53674;SDS011;39574;50.534;8.500;2023-05-08T02:51:25;3.8;;;1.5;;
53674;SDS011;39574;50.534;8.500;2023-05-08T02:56:27;4.4;;;1.6;;
53674;SDS011;39574;50.534;8.500;2023-05-08T03:01:23;3.8;;;1.5;;
53674;SDS011;39574;50.534;8.500;2023-05-08T03:06:23;3.5;;;1.4;;
53674;SDS011;39574;50.534;8.500;2023-05-08T03:11:21;3.0;;;1.1;;
53674;SDS011;39574;50.534;8.500;2023-05-08T03:16:21;2.5;;;0.9;;
53674;SDS011;39574;50.534;8.500;2023-05-08T03:21:21;4.0;;;1.3;;
53674;SDS011;39574;50.534;8.500;2023-05-08T03:26:18;4.0;;;1.5;;
53674;SDS011;39574;50.534;8.500;2023-05-08T03:31:18;4.0;;;1.4;;
53674;SDS011;39574;50.534;8.500;2023-05-08T03:36:16;3.5;;;1.3;;
53674;SDS011;39574;50.534;8.500;2023-05-08T03:41:15;3.4;;;1.2;;
53674;SDS011;39574;50.534;8.500;2023-05-08T03:46:15;4.1;;;1.3;;
53674;SDS011;39574;50.534;8.500;2023-05-08T03:51:14;3.5;;;1.1;;
53674;SDS011;39574;50.534;8.500;2023-05-08T03:56:13;3.0;;;0.9;;
53674;SDS011;39574;50.534;8.500;2023-05-08T04:01:14;2.8;;;1.1;;
53674;SDS011;39574;50.534;8.500;2023-05-08T04:06:13;3.5;;;1.3;;
53674;SDS011;39574;50.534;8.500;2023-05-08T04:11:11;3.5;;;1.2;;
53674;SDS011;39574;50.534;8.500;2023-05-08T04:16:11;3.1;;;1.1;;
53674;SDS011;39574;50.534;8.500;2023-05-08T04:21:09;2.9;;;1.1;;
53674;SDS011;39574;50.534;8.500;2023-05-08T04:26:08;2.6;;;1.0;;
53674;SDS011;39574;50.534;8.500;2023-05-08T04:31:07;3.0;;;1.3;;
53674;SDS011;39574;50.534;8.500;2023-05-08T04:36:06;3.0;;;1.2;;
53674;SDS011;39574;50.534;8.500;2023-05-08T04:41:05;2.8;;;1.1;;
53674;SDS011;39574;50.534;8.500;2023-05-08T04:46:04;2.5;;;0.9;;
53674;SDS011;39574;50.534;8.500;2023-05-08T04:51:03;2.7;;;0.9;;
53674;SDS011;39574;50.534;8.500;2023-05-08T04:56:02;2.6;;;1.0;;
53674;SDS011;39574;50.534;8.500;2023-05-08T05:01:04;2.7;;;1.1;;
53674;SDS011;39574;50.534;8.500;2023-05-08T05:06:01;2.8;;;1.0;;
53674;SDS011;39574;50.534;8.500;2023-05-08T05:11:00;2.6;;;0.8;;
53674;SDS011;39574;50.534;8.500;2023-05-08T05:15:59;2.8;;;1.0;;
53674;SDS011;39574;50.534;8.500;2023-05-08T05:20:58;2.5;;;0.9;;
53674;SDS011;39574;50.534;8.500;2023-05-08T05:25:57;2.7;;;1.2;;
53674;SDS011;39574;50.534;8.500;2023-05-08T05:30:56;3.0;;;1.3;;
53674;SDS011;39574;50.534;8.500;2023-05-08T05:35:55;3.1;;;1.2;;
53674;SDS011;39574;50.534;8.500;2023-05-08T05:40:54;3.0;;;1.1;;
53674;SDS011;39574;50.534;8.500;2023-05-08T05:45:53;3.0;;;1.1;;
53674;SDS011;39574;50.534;8.500;2023-05-08T05:50:52;3.0;;;1.1;;
53674;SDS011;39574;50.534;8.500;2023-05-08T05:55:52;2.9;;;1.1;;
53674;SDS011;39574;50.534;8.500;2023-05-08T06:00:51;2.9;;;1.4;;
53674;SDS011;39574;50.534;8.500;2023-05-08T06:05:50;2.8;;;1.4;;
53674;SDS011;39574;50.534;8.500;2023-05-08T06:10:49;2.6;;;1.3;;
53674;SDS011;39574;50.534;8.500;2023-05-08T06:15:48;2.7;;;1.3;;
53674;SDS011;39574;50.534;8.500;2023-05-08T06:20:47;3.2;;;1.6;;
53674;SDS011;39574;50.534;8.500;2023-05-08T06:25:46;3.2;;;1.5;;
53674;SDS011;39574;50.534;8.500;2023-05-08T06:30:46;3.0;;;1.5;;
53674;SDS011;39574;50.534;8.500;2023-05-08T06:35:45;3.0;;;1.4;;
53674;SDS011;39574;50.534;8.500;2023-05-08T06:40:44;3.0;;;1.1;;
53674;SDS011;39574;50.534;8.500;2023-05-08T06:45:43;2.9;;;1.2;;
53674;SDS011;39574;50.534;8.500;2023-05-08T06:50:42;2.8;;;1.1;;
53674;SDS011;39574;50.534;8.500;2023-05-08T06:55:41;3.1;;;1.4;;
53674;SDS011;39574;50.534;8.500;2023-05-08T07:00:40;3.0;;;1.4;;
53674;SDS011;39574;50.534;8.500;2023-05-08T07:05:39;3.0;;;1.2;;
53674;SDS011;39574;50.534;8.500;2023-05-08T07:10:38;2.9;;;1.2;;
53674;SDS011;39574;50.534;8.500;2023-05-08T07:15:37;2.9;;;1.3;;
53674;SDS011;39574;50.534;8.500;2023-05-08T07:20:37;2.7;;;1.1;;
53674;SDS011;39574;50.534;8.500;2023-05-08T07:25:36;3.2;;;1.4;;
53674;SDS011;39574;50.534;8.500;2023-05-08T07:30:35;3.2;;;1.3;;
53674;SDS011;39574;50.534;8.500;2023-05-08T07:35:37;2.9;;;1.1;;
53674;SDS011;39574;50.534;8.500;2023-05-08T07:40:33;3.3;;;1.3;;
53674;SDS011;39574;50.534;8.500;2023-05-08T07:45:32;3.4;;;1.4;;
53674;SDS011;39574;50.534;8.500;2023-05-08T07:50:31;4.2;;;1.7;;
53674;SDS011;39574;50.534;8.500;2023-05-08T07:55:31;4.0;;;1.6;;
53674;SDS011;39574;50.534;8.500;2023-05-08T08:00:30;3.5;;;1.4;;
53674;SDS011;39574;50.534;8.500;2023-05-08T08:05:31;3.1;;;1.2;;
53674;SDS011;39574;50.534;8.500;2023-05-08T08:10:28;2.9;;;1.3;;
53674;SDS011;39574;50.534;8.500;2023-05-08T08:15:27;3.2;;;1.5;;
53674;SDS011;39574;50.534;8.500;2023-05-08T08:20:27;3.3;;;1.5;;
53674;SDS011;39574;50.534;8.500;2023-05-08T08:25:26;3.4;;;1.6;;
53674;SDS011;39574;50.534;8.500;2023-05-08T08:30:25;3.3;;;1.5;;
53674;SDS011;39574;50.534;8.500;2023-05-08T08:35:24;3.5;;;1.5;;
53674;SDS011;39574;50.534;8.500;2023-05-08T08:40:23;3.7;;;1.6;;
53674;SDS011;39574;50.534;8.500;2023-05-08T08:45:23;3.7;;;1.5;;
53674;SDS011;39574;50.534;8.500;2023-05-08T08:50:22;3.3;;;1.4;;
53674;SDS011;39574;50.534;8.500;2023-05-08T08:55:21;3.7;;;1.6;;
53674;SDS011;39574;50.534;8.500;2023-05-08T09:00:21;3.7;;;1.6;;
53674;SDS011;39574;50.534;8.500;2023-05-08T09:05:20;3.5;;;1.7;;
53674;SDS011;39574;50.534;8.500;2023-05-08T09:10:19;3.4;;;1.7;;
53674;SDS011;39574;50.534;8.500;2023-05-08T09:15:18;3.5;;;1.6;;
53674;SDS011;39574;50.534;8.500;2023-05-08T09:20:18;3.6;;;1.6;;
53674;SDS011;39574;50.534;8.500;2023-05-08T09:25:16;3.3;;;1.4;;
53674;SDS011;39574;50.534;8.500;2023-05-08T09:30:15;3.0;;;1.3;;
53674;SDS011;39574;50.534;8.500;2023-05-08T09:35:15;3.0;;;1.4;;
53674;SDS011;39574;50.534;8.500;2023-05-08T09:40:15;3.3;;;1.3;;
53674;SDS011;39574;50.534;8.500;2023-05-08T09:45:24;3.0;;;1.2;;
53674;SDS011;39574;50.534;8.500;2023-05-08T09:50:12;2.8;;;1.1;;
53674;SDS011;39574;50.534;8.500;2023-05-08T09:55:14;3.3;;;1.6;;
53674;SDS011;39574;50.534;8.500;2023-05-08T10:00:11;4.0;;;1.5;;
53674;SDS011;39574;50.534;8.500;2023-05-08T10:05:21;3.8;;;1.6;;
53674;SDS011;39574;50.534;8.500;2023-05-08T10:20:08;2.5;;;1.0;;
53674;SDS011;39574;50.534;8.500;2023-05-08T10:25:09;2.8;;;1.4;;
53674;SDS011;39574;50.534;8.500;2023-05-08T10:30:06;2.8;;;1.3;;
53674;SDS011;39574;50.534;8.500;2023-05-08T10:35:07;2.9;;;1.3;;
53674;SDS011;39574;50.534;8.500;2023-05-08T10:40:05;3.5;;;1.8;;
53674;SDS011;39574;50.534;8.500;2023-05-08T10:45:04;3.4;;;1.7;;
53674;SDS011;39574;50.534;8.500;2023-05-08T10:50:05;3.4;;;1.6;;
53674;SDS011;39574;50.534;8.500;2023-05-08T10:55:08;3.4;;;1.7;;
53674;SDS011;39574;50.534;8.500;2023-05-08T11:00:05;3.1;;;1.4;;
53674;SDS011;39574;50.534;8.500;2023-05-08T11:05:13;3.8;;;1.4;;
53674;SDS011;39574;50.534;8.500;2023-05-08T11:10:11;3.6;;;1.4;;
53674;SDS011;39574;50.534;8.500;2023-05-08T11:15:00;3.3;;;1.3;;
53674;SDS011;39574;50.534;8.500;2023-05-08T11:19:59;3.1;;;1.2;;
53674;SDS011;39574;50.534;8.500;2023-05-08T11:24:59;3.2;;;1.2;;
53674;SDS011;39574;50.534;8.500;2023-05-08T11:31:01;3.3;;;1.4;;
53674;SDS011;39574;50.534;8.500;2023-05-08T11:34:56;3.5;;;1.7;;
53674;SDS011;39574;50.534;8.500;2023-05-08T11:39:55;3.5;;;1.7;;
53674;SDS011;39574;50.534;8.500;2023-05-08T11:44:59;3.2;;;1.5;;
53674;SDS011;39574;50.534;8.500;2023-05-08T11:49:54;3.2;;;1.3;;
53674;SDS011;39574;50.534;8.500;2023-05-08T11:54:53;3.2;;;1.2;;
53674;SDS011;39574;50.534;8.500;2023-05-08T11:59:53;3.4;;;1.3;;
53674;SDS011;39574;50.534;8.500;2023-05-08T12:04:52;3.2;;;1.3;;
53674;SDS011;39574;50.534;8.500;2023-05-08T12:09:51;2.8;;;1.2;;
53674;SDS011;39574;50.534;8.500;2023-05-08T12:14:50;3.1;;;1.5;;
53674;SDS011;39574;50.534;8.500;2023-05-08T12:19:53;3.1;;;1.6;;
53674;SDS011;39574;50.534;8.500;2023-05-08T12:24:49;3.2;;;1.6;;
53674;SDS011;39574;50.534;8.500;2023-05-08T12:29:49;3.6;;;1.6;;
53674;SDS011;39574;50.534;8.500;2023-05-08T12:39:47;3.6;;;1.6;;
53674;SDS011;39574;50.534;8.500;2023-05-08T12:44:49;3.4;;;1.5;;
53674;SDS011;39574;50.534;8.500;2023-05-08T12:49:46;3.7;;;1.4;;
53674;SDS011;39574;50.534;8.500;2023-05-08T12:54:46;3.5;;;1.3;;
53674;SDS011;39574;50.534;8.500;2023-05-08T12:59:45;3.4;;;1.2;;
53674;SDS011;39574;50.534;8.500;2023-05-08T13:04:44;3.0;;;1.1;;
53674;SDS011;39574;50.534;8.500;2023-05-08T13:09:59;3.1;;;1.3;;
53674;SDS011;39574;50.534;8.500;2023-05-08T13:14:43;3.5;;;1.6;;
53674;SDS011;39574;50.534;8.500;2023-05-08T13:19:42;3.9;;;1.9;;
53674;SDS011;39574;50.534;8.500;2023-05-08T13:24:45;3.9;;;2.0;;
53674;SDS011;39574;50.534;8.500;2023-05-08T13:29:41;3.7;;;1.9;;
53674;SDS011;39574;50.534;8.500;2023-05-08T13:34:40;3.8;;;1.8;;
53674;SDS011;39574;50.534;8.500;2023-05-08T13:39:40;3.7;;;1.8;;
53674;SDS011;39574;50.534;8.500;2023-05-08T13:44:39;3.6;;;1.6;;
53674;SDS011;39574;50.534;8.500;2023-05-08T13:49:38;3.8;;;1.6;;
53674;SDS011;39574;50.534;8.500;2023-05-08T13:54:38;3.8;;;1.5;;
53674;SDS011;39574;50.534;8.500;2023-05-08T13:59:37;5.3;;;1.7;;
53674;SDS011;39574;50.534;8.500;2023-05-08T14:04:37;4.5;;;1.5;;
53674;SDS011;39574;50.534;8.500;2023-05-08T14:09:36;3.8;;;1.3;;
53674;SDS011;39574;50.534;8.500;2023-05-08T14:14:35;4.5;;;1.5;;
53674;SDS011;39574;50.534;8.500;2023-05-08T14:19:35;3.7;;;1.3;;
53674;SDS011;39574;50.534;8.500;2023-05-08T14:24:34;3.4;;;1.2;;
53674;SDS011;39574;50.534;8.500;2023-05-08T14:29:33;3.1;;;1.3;;
53674;SDS011;39574;50.534;8.500;2023-05-08T14:34:33;3.1;;;1.5;;
53674;SDS011;39574;50.534;8.500;2023-05-08T14:39:32;2.9;;;1.4;;
53674;SDS011;39574;50.534;8.500;2023-05-08T14:44:32;4.2;;;1.7;;
53674;SDS011;39574;50.534;8.500;2023-05-08T14:49:31;4.2;;;1.5;;
53674;SDS011;39574;50.534;8.500;2023-05-08T14:54:30;3.8;;;1.4;;
53674;SDS011;39574;50.534;8.500;2023-05-08T14:59:30;3.7;;;1.4;;
53674;SDS011;39574;50.534;8.500;2023-05-08T15:04:29;4.7;;;1.3;;
53674;SDS011;39574;50.534;8.500;2023-05-08T15:09:29;4.0;;;1.1;;
53674;SDS011;39574;50.534;8.500;2023-05-08T15:14:28;3.6;;;1.0;;
53674;SDS011;39574;50.534;8.500;2023-05-08T15:19:28;4.4;;;1.3;;
53674;SDS011;39574;50.534;8.500;2023-05-08T15:24:27;3.8;;;1.2;;
53674;SDS011;39574;50.534;8.500;2023-05-08T15:29:27;3.5;;;1.2;;
53674;SDS011;39574;50.534;8.500;2023-05-08T15:34:26;3.3;;;1.2;;
53674;SDS011;39574;50.534;8.500;2023-05-08T15:39:26;2.8;;;1.1;;
53674;SDS011;39574;50.534;8.500;2023-05-08T15:44:25;3.1;;;1.2;;
53674;SDS011;39574;50.534;8.500;2023-05-08T15:49:25;3.3;;;1.2;;
53674;SDS011;39574;50.534;8.500;2023-05-08T15:54:24;3.8;;;1.5;;
53674;SDS011;39574;50.534;8.500;2023-05-08T15:59:23;3.7;;;1.4;;
53674;SDS011;39574;50.534;8.500;2023-05-08T16:04:23;3.4;;;1.4;;
53674;SDS011;39574;50.534;8.500;2023-05-08T16:09:23;3.0;;;1.3;;
53674;SDS011;39574;50.534;8.500;2023-05-08T16:14:22;2.7;;;1.2;;
53674;SDS011;39574;50.534;8.500;2023-05-08T16:19:21;4.7;;;1.5;;
53674;SDS011;39574;50.534;8.500;2023-05-08T16:24:21;4.4;;;1.4;;
53674;SDS011;39574;50.534;8.500;2023-05-08T16:29:20;3.8;;;1.2;;
53674;SDS011;39574;50.534;8.500;2023-05-08T16:34:20;3.7;;;1.5;;
53674;SDS011;39574;50.534;8.500;2023-05-08T16:39:19;3.0;;;1.3;;
53674;SDS011;39574;50.534;8.500;2023-05-08T16:44:18;3.0;;;1.3;;
53674;SDS011;39574;50.534;8.500;2023-05-08T16:49:18;3.0;;;1.3;;
53674;SDS011;39574;50.534;8.500;2023-05-08T16:59:17;2.7;;;1.2;;
53674;SDS011;39574;50.534;8.500;2023-05-08T17:04:16;2.7;;;1.0;;
53674;SDS011;39574;50.534;8.500;2023-05-08T17:09:15;2.6;;;1.0;;
53674;SDS011;39574;50.534;8.500;2023-05-08T17:14:15;2.6;;;0.8;;
53674;SDS011;39574;50.534;8.500;2023-05-08T17:19:14;2.5;;;0.7;;
53674;SDS011;39574;50.534;8.500;2023-05-08T17:24:14;2.5;;;0.7;;
53674;SDS011;39574;50.534;8.500;2023-05-08T17:29:13;2.5;;;0.7;;
53674;SDS011;39574;50.534;8.500;2023-05-08T17:34:12;2.6;;;0.7;;
53674;SDS011;39574;50.534;8.500;2023-05-08T17:39:13;3.0;;;0.9;;
53674;SDS011;39574;50.534;8.500;2023-05-08T17:44:11;3.1;;;0.9;;
53674;SDS011;39574;50.534;8.500;2023-05-08T17:49:11;3.2;;;1.1;;
53674;SDS011;39574;50.534;8.500;2023-05-08T17:54:10;3.3;;;1.0;;
53674;SDS011;39574;50.534;8.500;2023-05-08T17:59:09;3.1;;;1.1;;
53674;SDS011;39574;50.534;8.500;2023-05-08T18:04:09;3.5;;;1.3;;
53674;SDS011;39574;50.534;8.500;2023-05-08T18:09:08;3.2;;;1.1;;
53674;SDS011;39574;50.534;8.500;2023-05-08T18:14:08;2.9;;;1.0;;
53674;SDS011;39574;50.534;8.500;2023-05-08T18:19:07;3.1;;;1.0;;
53674;SDS011;39574;50.534;8.500;2023-05-08T18:24:06;3.0;;;1.0;;
53674;SDS011;39574;50.534;8.500;2023-05-08T18:29:06;2.7;;;0.8;;
53674;SDS011;39574;50.534;8.500;2023-05-08T18:34:05;2.9;;;1.1;;
53674;SDS011;39574;50.534;8.500;2023-05-08T18:39:04;3.0;;;1.1;;
53674;SDS011;39574;50.534;8.500;2023-05-08T18:44:04;2.9;;;0.9;;
53674;SDS011;39574;50.534;8.500;2023-05-08T18:49:03;2.9;;;1.1;;
53674;SDS011;39574;50.534;8.500;2023-05-08T18:54:03;2.8;;;0.9;;
53674;SDS011;39574;50.534;8.500;2023-05-08T18:59:02;2.8;;;1.1;;
53674;SDS011;39574;50.534;8.500;2023-05-08T19:04:01;2.9;;;1.0;;
53674;SDS011;39574;50.534;8.500;2023-05-08T19:09:01;3.4;;;1.2;;
53674;SDS011;39574;50.534;8.500;2023-05-08T19:18:59;3.1;;;1.1;;
53674;SDS011;39574;50.534;8.500;2023-05-08T19:23:59;3.4;;;1.1;;
53674;SDS011;39574;50.534;8.500;2023-05-08T19:28:58;3.3;;;1.2;;
53674;SDS011;39574;50.534;8.500;2023-05-08T19:33:57;3.5;;;1.4;;
53674;SDS011;39574;50.534;8.500;2023-05-08T19:38:57;3.5;;;1.5;;
53674;SDS011;39574;50.534;8.500;2023-05-08T19:43:59;3.0;;;1.2;;
53674;SDS011;39574;50.534;8.500;2023-05-08T19:48:56;2.7;;;1.0;;
53674;SDS011;39574;50.534;8.500;2023-05-08T19:53:56;3.0;;;1.1;;
53674;SDS011;39574;50.534;8.500;2023-05-08T19:58:58;7.0;;;1.3;;
53674;SDS011;39574;50.534;8.500;2023-05-08T20:03:54;5.7;;;1.0;;
53674;SDS011;39574;50.534;8.500;2023-05-08T20:08:53;4.8;;;1.0;;
53674;SDS011;39574;50.534;8.500;2023-05-08T20:13:52;4.6;;;1.2;;
53674;SDS011;39574;50.534;8.500;2023-05-08T20:18:51;3.5;;;1.3;;
53674;SDS011;39574;50.534;8.500;2023-05-08T20:23:51;3.3;;;1.2;;
53674;SDS011;39574;50.534;8.500;2023-05-08T20:28:50;4.3;;;1.4;;
53674;SDS011;39574;50.534;8.500;2023-05-08T20:58:49;3.3;;;1.1;;
53674;SDS011;39574;50.534;8.500;2023-05-08T21:03:45;3.0;;;1.0;;
53674;SDS011;39574;50.534;8.500;2023-05-08T21:08:44;4.2;;;1.4;;
53674;SDS011;39574;50.534;8.500;2023-05-08T21:13:44;3.8;;;1.4;;
53674;SDS011;39574;50.534;8.500;2023-05-08T21:18:43;4.2;;;1.4;;
53674;SDS011;39574;50.534;8.500;2023-05-08T21:23:42;3.9;;;1.3;;
53674;SDS011;39574;50.534;8.500;2023-05-08T21:28:42;3.6;;;1.3;;
53674;SDS011;39574;50.534;8.500;2023-05-08T21:33:41;3.5;;;1.3;;
53674;SDS011;39574;50.534;8.500;2023-05-08T21:38:40;3.0;;;1.1;;
53674;SDS011;39574;50.534;8.500;2023-05-08T21:43:40;3.1;;;1.2;;
53674;SDS011;39574;50.534;8.500;2023-05-08T21:48:39;3.3;;;1.4;;
53674;SDS011;39574;50.534;8.500;2023-05-08T21:53:38;4.3;;;1.9;;
53674;SDS011;39574;50.534;8.500;2023-05-08T21:58:37;4.8;;;1.9;;
53674;SDS011;39574;50.534;8.500;2023-05-08T22:03:37;4.2;;;1.7;;
53674;SDS011;39574;50.534;8.500;2023-05-08T22:08:36;3.6;;;1.4;;
53674;SDS011;39574;50.534;8.500;2023-05-08T22:13:35;3.0;;;1.1;;
53674;SDS011;39574;50.534;8.500;2023-05-08T22:18:35;2.9;;;1.1;;
53674;SDS011;39574;50.534;8.500;2023-05-08T22:23:34;2.8;;;1.1;;
53674;SDS011;39574;50.534;8.500;2023-05-08T22:28:33;4.1;;;1.4;;
53674;SDS011;39574;50.534;8.500;2023-05-08T22:33:33;4.0;;;1.6;;
53674;SDS011;39574;50.534;8.500;2023-05-08T22:38:32;3.5;;;1.5;;
53674;SDS011;39574;50.534;8.500;2023-05-08T22:43:31;3.0;;;1.3;;
53674;SDS011;39574;50.534;8.500;2023-05-08T22:48:30;2.9;;;1.3;;
53674;SDS011;39574;50.534;8.500;2023-05-08T22:53:30;3.1;;;1.3;;
53674;SDS011;39574;50.534;8.500;2023-05-08T22:58:29;3.0;;;1.2;;
53674;SDS011;39574;50.534;8.500;2023-05-08T23:08:28;3.0;;;1.2;;
53674;SDS011;39574;50.534;8.500;2023-05-08T23:13:27;2.9;;;1.3;;
53674;SDS011;39574;50.534;8.500;2023-05-08T23:18:26;3.5;;;1.5;;
53674;SDS011;39574;50.534;8.500;2023-05-08T23:23:25;3.4;;;1.5;;
53674;SDS011;39574;50.534;8.500;2023-05-08T23:28:25;3.2;;;1.4;;
53674;SDS011;39574;50.534;8.500;2023-05-08T23:33:24;4.0;;;1.6;;
53674;SDS011;39574;50.534;8.500;2023-05-08T23:38:23;3.8;;;1.4;;
53674;SDS011;39574;50.534;8.500;2023-05-08T23:43:23;4.1;;;1.3;;
53674;SDS011;39574;50.534;8.500;2023-05-08T23:48:22;3.7;;;1.1;;
53674;SDS011;39574;50.534;8.500;2023-05-08T23:53:21;3.5;;;1.2;;
53674;SDS011;39574;50.534;8.500;2023-05-08T23:58:21;3.6;;;1.3;;
